createdAt,value
2022-12-15T00:02:38.888Z,-5.86
2022-12-15T00:05:25.714Z,-5.86
2022-12-15T00:08:11.106Z,-5.90
2022-12-15T00:10:56.831Z,-5.94
2022-12-15T00:13:42.763Z,-5.92
2022-12-15T00:16:28.729Z,-5.88
2022-12-15T00:19:14.233Z,-5.89
2022-12-15T00:21:59.815Z,-5.89
2022-12-15T00:24:49.740Z,-5.88
2022-12-15T00:27:35.715Z,-5.88
2022-12-15T00:30:23.079Z,-6.03
2022-12-15T00:33:09.077Z,-5.94
2022-12-15T00:35:56.213Z,-6.03
2022-12-15T00:38:44.261Z,-5.98
2022-12-15T00:41:13.958Z,-5.99
2022-12-15T00:43:41.405Z,-5.95
2022-12-15T00:46:27.503Z,-5.93
2022-12-15T00:48:54.708Z,-5.90
2022-12-15T00:51:21.742Z,-5.91
2022-12-15T00:54:08.417Z,-5.91
2022-12-15T00:56:56.513Z,-5.95
2022-12-15T00:59:41.971Z,-5.97
2022-12-15T01:02:27.389Z,-5.98
2022-12-15T01:05:13.170Z,-6.00
2022-12-15T01:07:58.630Z,-6.08
2022-12-15T01:10:44.595Z,-6.05
2022-12-15T01:13:32.067Z,-6.10
2022-12-15T01:16:17.824Z,-6.12
2022-12-15T01:19:03.141Z,-6.17
2022-12-15T01:21:32.182Z,-6.17
2022-12-15T01:23:59.135Z,-6.17
2022-12-15T01:26:26.089Z,-6.23
2022-12-15T01:28:53.126Z,-6.26
2022-12-15T01:31:20.145Z,-6.17
2022-12-15T01:33:47.340Z,-6.25
2022-12-15T01:36:14.374Z,-6.18
2022-12-15T01:38:41.429Z,-6.13
2022-12-15T01:41:12.350Z,-6.13
2022-12-15T01:43:41.172Z,-6.21
2022-12-15T01:46:17.783Z,-6.15
2022-12-15T01:48:59.736Z,-6.28
2022-12-15T01:51:32.156Z,-6.18
2022-12-15T01:54:11.045Z,-6.18
2022-12-15T01:56:43.222Z,-6.17
2022-12-15T01:59:15.143Z,-6.18
2022-12-15T02:01:42.413Z,-6.13
2022-12-15T02:04:10.059Z,-6.15
2022-12-15T02:06:37.511Z,-6.14
2022-12-15T02:09:07.544Z,-6.15
2022-12-15T02:11:49.468Z,-6.14
2022-12-15T02:14:39.930Z,-6.15
2022-12-15T02:17:22.996Z,-6.17
2022-12-15T02:20:06.190Z,-6.17
2022-12-15T02:22:48.244Z,-6.18
2022-12-15T02:25:38.286Z,-6.20
2022-12-15T02:28:10.332Z,-6.19
2022-12-15T02:30:40.314Z,-6.19
2022-12-15T02:33:15.078Z,-6.18
2022-12-15T02:36:02.188Z,-6.23
2022-12-15T02:38:37.073Z,-6.22
2022-12-15T02:41:10.119Z,-6.22
2022-12-15T02:43:38.964Z,-6.28
2022-12-15T02:46:32.218Z,-6.19
2022-12-15T02:49:23.810Z,-6.18
2022-12-15T02:52:11.290Z,-6.21
2022-12-15T02:55:01.839Z,-6.22
2022-12-15T02:57:43.974Z,-6.25
2022-12-15T03:00:12.672Z,-6.26
2022-12-15T03:02:44.410Z,-6.27
2022-12-15T03:05:13.105Z,-6.32
2022-12-15T03:07:42.707Z,-6.41
2022-12-15T03:10:13.065Z,-6.45
2022-12-15T03:12:40.196Z,-6.46
2022-12-15T03:15:07.764Z,-6.48
2022-12-15T03:17:34.744Z,-6.53
2022-12-15T03:20:02.757Z,-6.50
2022-12-15T03:22:29.868Z,-6.60
2022-12-15T03:24:57.218Z,-6.50
2022-12-15T03:27:24.242Z,-6.48
2022-12-15T03:29:51.272Z,-6.51
2022-12-15T03:32:18.374Z,-6.53
2022-12-15T03:34:45.556Z,-6.53
2022-12-15T03:37:12.536Z,-6.69
2022-12-15T03:39:39.543Z,-6.56
2022-12-15T03:42:07.445Z,-6.58
2022-12-15T03:44:34.600Z,-6.59
2022-12-15T03:47:03.700Z,-6.59
2022-12-15T03:49:31.059Z,-6.60
2022-12-15T03:51:58.075Z,-6.61
2022-12-15T03:54:25.138Z,-6.58
2022-12-15T03:56:52.166Z,-6.54
2022-12-15T03:59:19.480Z,-6.61
2022-12-15T04:01:49.082Z,-6.57
2022-12-15T04:04:16.356Z,-6.60
2022-12-15T04:06:43.447Z,-6.58
2022-12-15T04:09:10.923Z,-6.59
2022-12-15T04:11:37.992Z,-6.60
2022-12-15T04:14:06.207Z,-6.61
2022-12-15T04:16:33.279Z,-6.68
2022-12-15T04:19:18.681Z,-6.61
2022-12-15T04:21:45.774Z,-6.56
2022-12-15T04:24:31.666Z,-6.56
2022-12-15T04:27:17.092Z,-6.54
2022-12-15T04:30:02.450Z,-6.48
2022-12-15T04:32:49.841Z,-6.41
2022-12-15T04:35:37.401Z,-6.48
2022-12-15T04:38:22.780Z,-6.37
2022-12-15T04:41:08.545Z,-6.33
2022-12-15T04:43:54.131Z,-6.30
2022-12-15T04:46:39.612Z,-6.29
2022-12-15T04:49:25.735Z,-6.29
2022-12-15T04:52:11.127Z,-6.30
2022-12-15T04:54:56.515Z,-6.30
2022-12-15T04:57:41.948Z,-6.29
2022-12-15T05:00:28.424Z,-6.30
2022-12-15T05:03:29.961Z,-6.27
2022-12-15T05:06:17.236Z,-6.25
2022-12-15T05:09:02.622Z,-6.28
2022-12-15T05:11:48.567Z,-6.27
2022-12-15T05:14:33.883Z,-6.27
2022-12-15T05:17:19.221Z,-6.26
2022-12-15T05:20:04.685Z,-6.24
2022-12-15T05:22:49.964Z,-6.28
2022-12-15T05:25:36.298Z,-6.28
2022-12-15T05:28:27.426Z,-6.34
2022-12-15T05:31:13.010Z,-6.25
2022-12-15T05:33:40.269Z,-6.24
2022-12-15T05:36:07.758Z,-6.22
2022-12-15T05:38:35.556Z,-6.19
2022-12-15T05:41:02.841Z,-6.18
2022-12-15T05:43:30.378Z,-6.17
2022-12-15T05:46:03.149Z,-6.14
2022-12-15T05:48:30.173Z,-6.12
2022-12-15T05:50:57.156Z,-6.13
2022-12-15T05:53:24.184Z,-6.14
2022-12-15T05:55:51.189Z,-6.17
2022-12-15T05:58:18.211Z,-6.28
2022-12-15T06:00:45.171Z,-6.21
2022-12-15T06:03:12.272Z,-6.22
2022-12-15T06:05:40.121Z,-6.25
2022-12-15T06:08:07.425Z,-6.29
2022-12-15T06:10:34.428Z,-6.39
2022-12-15T06:13:01.748Z,-6.36
2022-12-15T06:15:28.748Z,-6.32
2022-12-15T06:17:55.837Z,-6.31
2022-12-15T06:20:22.917Z,-6.26
2022-12-15T06:22:50.316Z,-6.22
2022-12-15T06:25:17.784Z,-6.22
2022-12-15T06:27:44.821Z,-6.19
2022-12-15T06:30:12.381Z,-6.14
2022-12-15T06:32:39.689Z,-6.17
2022-12-15T06:35:07.293Z,-6.10
2022-12-15T06:37:35.507Z,-6.09
2022-12-15T06:40:02.720Z,-6.06
2022-12-15T06:42:30.081Z,-6.03
2022-12-15T06:44:57.132Z,-6.02
2022-12-15T06:47:24.118Z,-6.01
2022-12-15T06:49:51.394Z,-6.00
2022-12-15T06:52:18.425Z,-6.01
2022-12-15T06:54:45.474Z,-5.97
2022-12-15T06:57:12.455Z,-5.97
2022-12-15T06:59:39.646Z,-5.95
2022-12-15T07:02:21.112Z,-5.98
2022-12-15T07:04:50.842Z,-5.93
2022-12-15T07:07:17.822Z,-5.99
2022-12-15T07:09:44.816Z,-6.02
2022-12-15T07:12:12.574Z,-5.99
2022-12-15T07:14:39.918Z,-6.00
2022-12-15T07:17:07.158Z,-6.02
2022-12-15T07:19:34.189Z,-6.09
2022-12-15T07:22:01.410Z,-5.99
2022-12-15T07:24:28.684Z,-6.00
2022-12-15T07:26:55.751Z,-6.03
2022-12-15T07:29:23.628Z,-6.02
2022-12-15T07:31:51.099Z,-6.06
2022-12-15T07:34:18.335Z,-6.09
2022-12-15T07:36:51.553Z,-5.96
2022-12-15T07:39:19.294Z,-5.95
2022-12-15T07:41:46.737Z,-6.01
2022-12-15T07:44:14.837Z,-5.95
2022-12-15T07:46:46.729Z,-5.91
2022-12-15T07:49:13.999Z,-5.84
2022-12-15T07:51:41.593Z,-5.85
2022-12-15T07:54:11.395Z,-5.86
2022-12-15T07:56:39.617Z,-5.87
2022-12-15T07:59:07.582Z,-5.87
2022-12-15T08:01:37.801Z,-5.85
2022-12-15T08:04:07.493Z,-5.88
2022-12-15T08:06:35.168Z,-5.86
2022-12-15T08:09:02.324Z,-5.88
2022-12-15T08:11:33.925Z,-5.88
2022-12-15T08:14:03.089Z,-5.84
2022-12-15T08:16:31.782Z,-5.78
2022-12-15T08:18:58.961Z,-5.77
2022-12-15T08:21:26.022Z,-5.77
2022-12-15T08:23:53.161Z,-5.75
2022-12-15T08:26:23.832Z,-5.74
2022-12-15T08:28:54.103Z,-5.69
2022-12-15T08:31:23.268Z,-5.63
2022-12-15T08:33:51.209Z,-5.61
2022-12-15T08:36:19.653Z,-5.57
2022-12-15T08:38:47.207Z,-5.62
2022-12-15T08:41:17.502Z,-5.51
2022-12-15T08:43:48.561Z,-5.53
2022-12-15T08:46:18.352Z,-5.42
2022-12-15T08:48:46.628Z,-5.36
2022-12-15T08:51:14.334Z,-5.32
2022-12-15T08:53:41.571Z,-5.22
2022-12-15T08:56:18.421Z,-5.12
2022-12-15T08:58:46.738Z,-5.18
2022-12-15T09:01:23.941Z,-5.10
2022-12-15T09:03:53.835Z,-5.06
2022-12-15T09:06:24.274Z,-4.98
2022-12-15T09:08:54.803Z,-4.89
2022-12-15T09:11:22.479Z,-4.87
2022-12-15T09:13:49.889Z,-4.78
2022-12-15T09:16:20.918Z,-4.77
2022-12-15T09:18:52.946Z,-4.65
2022-12-15T09:21:26.086Z,-4.62
2022-12-15T09:23:55.905Z,-4.65
2022-12-15T09:26:23.800Z,-4.61
2022-12-15T09:28:51.948Z,-4.61
2022-12-15T09:31:25.218Z,-4.54
2022-12-15T09:33:54.227Z,-4.57
2022-12-15T09:36:22.453Z,-4.40
2022-12-15T09:38:49.820Z,-4.31
2022-12-15T09:41:27.124Z,-4.17
2022-12-15T09:44:15.734Z,-4.09
2022-12-15T09:46:59.706Z,-4.16
2022-12-15T09:49:53.121Z,-4.07
2022-12-15T09:52:25.354Z,-4.00
2022-12-15T09:54:52.905Z,-3.95
2022-12-15T09:57:31.624Z,-3.89
2022-12-15T10:00:16.644Z,-3.82
2022-12-15T10:02:52.590Z,-3.68
2022-12-15T10:06:07.348Z,-3.63
2022-12-15T10:08:30.893Z,-3.63
2022-12-15T10:11:01.701Z,-3.66
2022-12-15T10:13:34.330Z,-3.64
2022-12-15T10:16:16.648Z,-3.55
2022-12-15T10:19:07.454Z,-3.40
2022-12-15T10:21:37.358Z,-3.32
2022-12-15T10:24:31.434Z,-3.26
2022-12-15T10:27:30.236Z,-3.18
2022-12-15T10:30:02.675Z,-3.07
2022-12-15T10:32:50.429Z,-3.07
2022-12-15T10:35:22.992Z,-3.03
2022-12-15T10:37:50.120Z,-2.99
2022-12-15T10:40:19.804Z,-2.96
2022-12-15T10:42:49.369Z,-2.90
2022-12-15T10:45:36.456Z,-2.75
2022-12-15T10:48:06.969Z,-2.53
2022-12-15T10:50:37.479Z,-2.30
2022-12-15T10:53:09.712Z,-2.04
2022-12-15T10:55:42.317Z,-1.87
2022-12-15T10:58:22.486Z,-1.73
2022-12-15T11:01:14.563Z,-1.66
2022-12-15T11:03:42.034Z,-1.68
2022-12-15T11:06:24.215Z,-1.71
2022-12-15T11:08:54.430Z,-1.79
2022-12-15T11:12:03.603Z,-1.85
2022-12-15T11:14:43.802Z,-1.79
2022-12-15T11:17:17.193Z,-2.04
2022-12-15T11:19:52.219Z,-1.79
2022-12-15T11:22:46.504Z,-1.76
2022-12-15T11:25:22.983Z,-1.71
2022-12-15T11:27:54.188Z,-1.63
2022-12-15T11:30:24.458Z,-1.64
2022-12-15T11:32:55.620Z,-1.60
2022-12-15T11:35:30.665Z,-1.57
2022-12-15T11:38:08.828Z,-1.50
2022-12-15T11:40:43.494Z,-1.48
2022-12-15T11:43:31.617Z,-1.38
2022-12-15T11:46:23.066Z,-1.22
2022-12-15T11:49:14.851Z,-1.05
2022-12-15T11:51:50.340Z,-0.96
2022-12-15T11:54:40.495Z,-0.96
2022-12-15T11:57:32.781Z,-0.89
2022-12-15T12:00:19.422Z,-0.76
2022-12-15T12:02:55.747Z,-0.74
2022-12-15T12:05:31.758Z,-0.69
2022-12-15T12:08:27.939Z,-0.71
2022-12-15T12:11:13.630Z,-0.62
2022-12-15T12:14:09.658Z,-0.66
2022-12-15T12:17:01.549Z,-0.65
2022-12-15T12:19:42.927Z,-0.61
2022-12-15T12:22:20.710Z,-0.55
2022-12-15T12:25:14.481Z,-0.46
2022-12-15T12:27:52.971Z,-0.49
2022-12-15T12:30:22.541Z,-0.36
2022-12-15T12:33:03.241Z,-0.34
2022-12-15T12:35:56.072Z,-0.29
2022-12-15T12:38:29.782Z,-0.34
2022-12-15T12:41:20.528Z,-0.27
2022-12-15T12:44:00.816Z,-0.28
2022-12-15T12:46:37.347Z,-0.33
2022-12-15T12:49:18.717Z,-0.32
2022-12-15T12:51:55.115Z,-0.27
2022-12-15T12:54:34.036Z,-0.29
2022-12-15T12:57:01.885Z,-0.40
2022-12-15T12:59:28.847Z,-0.38
2022-12-15T13:02:21.996Z,-0.41
2022-12-15T13:04:52.275Z,-0.45
2022-12-15T13:07:37.772Z,-0.42
2022-12-15T13:10:07.849Z,-0.51
2022-12-15T13:12:59.235Z,-0.55
2022-12-15T13:15:37.289Z,-0.56
2022-12-15T13:18:16.075Z,-0.49
2022-12-15T13:20:45.103Z,-0.53
2022-12-15T13:23:21.918Z,-0.55
2022-12-15T13:25:57.799Z,-0.55
2022-12-15T13:28:35.665Z,-0.52
2022-12-15T13:31:25.240Z,-0.47
2022-12-15T13:33:52.627Z,-0.46
2022-12-15T13:36:38.092Z,-0.39
2022-12-15T13:39:28.076Z,-0.37
2022-12-15T13:42:31.416Z,-0.37
2022-12-15T13:44:48.878Z,-0.30
2022-12-15T13:47:18.850Z,-0.27
2022-12-15T13:50:01.466Z,-0.20
2022-12-15T13:53:16.683Z,-0.14
2022-12-15T13:55:28.239Z,-0.20
2022-12-15T13:58:17.388Z,-0.14
2022-12-15T14:00:58.105Z,-0.22
2022-12-15T14:03:26.422Z,-0.29
2022-12-15T14:08:45.081Z,-0.50
2022-12-15T14:11:51.213Z,-0.44
2022-12-15T14:14:24.386Z,-0.61
2022-12-15T14:16:54.502Z,-0.55
2022-12-15T14:19:21.612Z,-0.54
2022-12-15T14:21:57.061Z,-0.54
2022-12-15T14:24:38.632Z,-0.49
2022-12-15T14:27:10.031Z,-0.44
2022-12-15T14:29:37.154Z,-0.52
2022-12-15T14:32:05.881Z,-0.44
2022-12-15T14:34:39.306Z,-0.46
2022-12-15T14:37:18.888Z,-0.52
2022-12-15T14:39:50.379Z,-0.39
2022-12-15T14:42:23.215Z,-0.42
2022-12-15T14:44:57.519Z,-0.36
2022-12-15T14:47:38.855Z,-0.42
2022-12-15T14:50:13.611Z,-0.43
2022-12-15T14:52:43.450Z,-0.44
2022-12-15T14:55:31.803Z,-0.60
2022-12-15T14:57:59.713Z,-0.60
2022-12-15T15:00:36.717Z,-0.63
2022-12-15T15:03:14.143Z,-0.34
2022-12-15T15:03:19.956Z,-0.68
2022-12-15T15:05:57.918Z,-0.80
2022-12-15T15:08:34.868Z,-0.84
2022-12-15T15:11:21.216Z,-0.89
2022-12-15T15:13:48.423Z,-1.18
2022-12-15T15:16:18.875Z,-1.07
2022-12-15T15:18:51.999Z,-1.26
2022-12-15T15:21:22.751Z,-1.28
2022-12-15T15:24:29.690Z,-1.30
2022-12-15T15:27:35.531Z,-1.40
2022-12-15T15:30:14.616Z,-1.52
2022-12-15T15:32:59.056Z,-1.58
2022-12-15T15:35:30.906Z,-1.63
2022-12-15T15:38:27.161Z,-1.67
2022-12-15T15:40:57.036Z,-1.73
2022-12-15T15:43:25.747Z,-1.73
2022-12-15T15:46:00.654Z,-1.73
2022-12-15T15:48:32.565Z,-1.83
2022-12-15T15:51:00.765Z,-1.87
2022-12-15T15:53:31.745Z,-1.78
2022-12-15T15:56:00.073Z,-1.79
2022-12-15T15:58:27.105Z,-1.72
2022-12-15T16:00:54.190Z,-1.72
2022-12-15T16:03:21.463Z,-1.79
2022-12-15T16:05:48.985Z,-1.79
2022-12-15T16:08:20.011Z,-1.83
2022-12-15T16:10:48.768Z,-1.88
2022-12-15T16:13:25.636Z,-1.88
2022-12-15T16:15:53.363Z,-1.91
2022-12-15T16:18:21.150Z,-1.85
2022-12-15T16:20:50.776Z,-1.85
2022-12-15T16:23:22.173Z,-1.88
2022-12-15T16:25:54.498Z,-1.91
2022-12-15T16:28:30.832Z,-2.02
2022-12-15T16:30:58.879Z,-2.08
2022-12-15T16:33:26.056Z,-2.10
2022-12-15T16:35:53.592Z,-2.16
2022-12-15T16:38:26.761Z,-2.17
2022-12-15T16:40:55.554Z,-2.19
2022-12-15T16:43:26.931Z,-2.20
2022-12-15T16:45:56.322Z,-2.21
2022-12-15T16:48:23.476Z,-2.22
2022-12-15T16:50:53.724Z,-2.19
2022-12-15T16:53:26.700Z,-2.26
2022-12-15T16:55:59.539Z,-2.30
2022-12-15T16:58:28.780Z,-2.35
2022-12-15T17:00:56.130Z,-2.39
2022-12-15T17:03:25.893Z,-2.36
2022-12-15T17:05:56.319Z,-2.31
2022-12-15T17:08:34.707Z,-2.37
2022-12-15T17:11:02.806Z,-2.32
2022-12-15T17:13:45.578Z,-2.36
2022-12-15T17:16:14.483Z,-2.43
2022-12-15T17:18:43.013Z,-2.39
2022-12-15T17:21:11.353Z,-2.34
2022-12-15T17:23:39.960Z,-2.40
2022-12-15T17:26:25.941Z,-2.44
2022-12-15T17:28:56.522Z,-2.45
2022-12-15T17:31:27.682Z,-2.44
2022-12-15T17:33:57.073Z,-2.45
2022-12-15T17:36:26.762Z,-2.46
2022-12-15T17:38:59.164Z,-2.48
2022-12-15T17:41:59.312Z,-2.47
2022-12-15T17:44:35.421Z,-2.50
2022-12-15T17:47:09.178Z,-2.53
2022-12-15T17:49:38.900Z,-2.59
2022-12-15T17:52:28.423Z,-2.58
2022-12-15T17:54:56.312Z,-2.57
2022-12-15T17:57:23.424Z,-2.46
2022-12-15T17:59:50.437Z,-2.34
2022-12-15T18:02:17.649Z,-2.23
2022-12-15T18:04:45.008Z,-2.26
2022-12-15T18:07:16.521Z,-2.17
2022-12-15T18:09:44.227Z,-2.25
2022-12-15T18:12:25.249Z,-2.20
2022-12-15T18:14:53.053Z,-2.23
2022-12-15T18:17:20.699Z,-2.19
2022-12-15T18:19:48.431Z,-2.32
2022-12-15T18:22:23.466Z,-2.28
2022-12-15T18:24:52.818Z,-2.28
2022-12-15T18:27:23.287Z,-2.27
2022-12-15T18:29:50.626Z,-2.24
2022-12-15T18:32:19.234Z,-2.16
2022-12-15T18:34:46.805Z,-2.17
2022-12-15T18:37:16.665Z,-2.12
2022-12-15T18:39:43.888Z,-2.12
2022-12-15T18:42:15.840Z,-2.09
2022-12-15T18:44:47.761Z,-2.19
2022-12-15T18:47:17.142Z,-2.28
2022-12-15T18:49:44.675Z,-2.21
2022-12-15T18:52:17.254Z,-2.25
2022-12-15T18:54:44.934Z,-2.24
2022-12-15T18:57:30.540Z,-2.29
2022-12-15T19:00:18.591Z,-2.38
2022-12-15T19:02:45.810Z,-2.32
2022-12-15T19:05:28.718Z,-2.36
2022-12-15T19:08:13.239Z,-2.36
2022-12-15T19:10:48.288Z,-2.32
2022-12-15T19:13:17.829Z,-2.48
2022-12-15T19:15:45.243Z,-2.32
2022-12-15T19:18:36.603Z,-2.29
2022-12-15T19:21:42.097Z,-2.28
2022-12-15T19:24:54.872Z,-2.25
2022-12-15T19:27:26.539Z,-2.19
2022-12-15T19:29:54.586Z,-2.21
2022-12-15T19:32:22.899Z,-2.20
2022-12-15T19:34:50.251Z,-2.24
2022-12-15T19:37:26.967Z,-2.15
2022-12-15T19:39:57.608Z,-2.27
2022-12-15T19:42:31.173Z,-2.21
2022-12-15T19:44:58.654Z,-2.26
2022-12-15T19:47:25.701Z,-2.23
2022-12-15T19:49:52.923Z,-2.26
2022-12-15T19:52:22.235Z,-2.29
2022-12-15T19:54:50.753Z,-2.29
2022-12-15T19:57:19.390Z,-2.34
2022-12-15T19:59:46.641Z,-2.35
2022-12-15T20:02:19.496Z,-2.41
2022-12-15T20:04:48.109Z,-2.33
2022-12-15T20:07:18.620Z,-2.43
2022-12-15T20:09:46.747Z,-2.28
2022-12-15T20:12:18.502Z,-2.25
2022-12-15T20:14:47.057Z,-2.27
2022-12-15T20:17:14.704Z,-2.21
2022-12-15T20:19:42.924Z,-2.16
2022-12-15T20:22:19.574Z,-2.17
2022-12-15T20:24:47.401Z,-2.08
2022-12-15T20:27:17.055Z,-2.09
2022-12-15T20:29:44.844Z,-2.16
2022-12-15T20:32:20.097Z,-1.99
2022-12-15T20:34:48.012Z,-2.13
2022-12-15T20:37:26.888Z,-2.12
2022-12-15T20:39:57.350Z,-2.15
2022-12-15T20:42:25.291Z,-2.16
2022-12-15T20:44:52.281Z,-2.16
2022-12-15T20:47:24.980Z,-2.15
2022-12-15T20:49:54.188Z,-2.13
2022-12-15T20:52:24.405Z,-2.16
2022-12-15T20:54:52.717Z,-2.17
2022-12-15T20:57:20.290Z,-2.17
2022-12-15T20:59:47.680Z,-2.12
2022-12-15T21:02:20.443Z,-2.18
2022-12-15T21:04:48.291Z,-2.12
2022-12-15T21:07:15.505Z,-2.10
2022-12-15T21:09:42.701Z,-2.17
2022-12-15T21:12:28.146Z,-2.16
2022-12-15T21:14:55.368Z,-2.04
2022-12-15T21:17:24.312Z,-2.02
2022-12-15T21:19:52.118Z,-2.10
2022-12-15T21:22:23.762Z,-2.04
2022-12-15T21:24:53.058Z,-2.06
2022-12-15T21:27:21.488Z,-2.07
2022-12-15T21:29:52.706Z,-2.12
2022-12-15T21:32:21.141Z,-2.18
2022-12-15T21:34:49.738Z,-2.17
2022-12-15T21:37:28.467Z,-2.19
2022-12-15T21:39:56.525Z,-2.21
2022-12-15T21:42:24.275Z,-2.24
2022-12-15T21:44:51.290Z,-2.31
2022-12-15T21:47:24.835Z,-2.27
2022-12-15T21:49:52.338Z,-2.25
2022-12-15T21:52:21.157Z,-2.21
2022-12-15T21:54:48.271Z,-2.19
2022-12-15T21:57:15.270Z,-2.13
2022-12-15T21:59:42.933Z,-2.09
2022-12-15T22:02:25.406Z,-2.03
2022-12-15T22:04:52.727Z,-2.03
2022-12-15T22:07:22.092Z,-2.01
2022-12-15T22:09:49.276Z,-2.00
2022-12-15T22:12:25.667Z,-1.93
2022-12-15T22:14:52.837Z,-1.95
2022-12-15T22:17:22.041Z,-1.87
2022-12-15T22:19:49.290Z,-1.87
2022-12-15T22:22:16.597Z,-1.81
2022-12-15T22:24:43.745Z,-1.76
2022-12-15T22:27:22.591Z,-1.78
2022-12-15T22:29:50.401Z,-1.72
2022-12-15T22:32:18.054Z,-1.70
2022-12-15T22:34:46.102Z,-1.69
2022-12-15T22:37:13.132Z,-1.68
2022-12-15T22:39:40.212Z,-1.69
2022-12-15T22:42:08.467Z,-1.67
2022-12-15T22:44:37.667Z,-1.68
2022-12-15T22:47:10.388Z,-1.65
2022-12-15T22:49:40.088Z,-1.66
2022-12-15T22:52:17.099Z,-1.61
2022-12-15T22:54:45.909Z,-1.58
2022-12-15T22:57:21.259Z,-1.62
2022-12-15T22:59:54.737Z,-1.69
2022-12-15T23:02:21.941Z,-1.71
2022-12-15T23:04:49.016Z,-1.76
2022-12-15T23:07:16.030Z,-1.82
2022-12-15T23:09:43.041Z,-1.89
2022-12-15T23:12:10.145Z,-1.97
2022-12-15T23:14:55.813Z,-2.15
2022-12-15T23:17:22.834Z,-2.09
2022-12-15T23:19:49.797Z,-2.21
2022-12-15T23:22:16.794Z,-2.19
2022-12-15T23:24:43.863Z,-2.24
2022-12-15T23:27:11.642Z,-2.26
2022-12-15T23:29:38.681Z,-2.26
2022-12-15T23:32:08.982Z,-2.28
2022-12-15T23:34:36.961Z,-2.27
2022-12-15T23:37:03.979Z,-2.27
2022-12-15T23:39:31.015Z,-2.23
2022-12-15T23:41:58.033Z,-2.13
2022-12-15T23:44:25.079Z,-2.08
2022-12-15T23:46:52.187Z,-2.13
2022-12-15T23:49:19.298Z,-2.22
2022-12-15T23:51:46.309Z,-2.29
2022-12-15T23:54:13.897Z,-2.46
2022-12-15T23:56:41.101Z,-2.44
2022-12-15T23:59:08.134Z,-2.59
